Linwood, Pennsylvania
Current Conditions -  °F | °C
As of 3:54 PM on Tuesday 21 Oct 2014 (Local Time) from KPHL Reporting Station
Scattered Clouds Scattered Clouds  
Wind Chill: 69°   Ceiling: Unl
Heat Index: 69°   Visibility: 10mi
Dew Point: 47°   Wind: 6mph
Humidity: 45%   Direction: 230°SW
Pressure: 29.81"   Gusts: NA
Location:  39.8393°N, 75.4661°W
Report Text: KPHL 211954Z 23005KT 10SM SCT048 SCT080 21/08 A2981 RMK AO2 SLP093 T02060083 $
Loading
Personal Weather Stations






























Interactive Weather Map
Tropical Storm Tracking
New forecast layout! Learn more

10-Day Weather Forecast

Advertisements
Track Severe Weather on mobile